Time;durP1;ratioP1;P1;durP2;ratioP2;P2;SDS_P1;SDS_P2;PMS_P1;PMS_P2;Temp;Humidity;BMP_temperature;BMP_pressure;BME280_temperature;BME280_humidity;BME280_pressure;Samples;Min_cycle;Max_cycle;Signal;HPM_P1;HPM_P2
2021/12/12 00:00:34;;;;;;;61.90;33.83;;;4.00;99.90;;;;;;5136668;27;20046;-73
2021/12/12 00:03:34;;;;;;;66.35;35.80;;;4.10;99.90;;;;;;5135534;27;20178;-73
2021/12/12 00:06:07;;;;;;;69.03;34.80;;;4.10;99.90;;;;;;5114581;27;20047;-73
2021/12/12 00:08:33;;;;;;;67.13;36.22;;;4.10;99.90;;;;;;5136743;27;20450;-73
2021/12/12 00:11:06;;;;;;;65.80;36.55;;;4.10;99.90;;;;;;5136544;27;20051;-73
2021/12/12 00:13:41;;;;;;;65.10;35.20;;;4.10;99.90;;;;;;5135382;27;20122;-73
2021/12/12 00:16:07;;;;;;;61.03;35.00;;;4.10;99.90;;;;;;5117525;27;20519;-73
2021/12/12 00:18:33;;;;;;;64.75;34.63;;;4.10;99.90;;;;;;5135841;27;20078;-73
2021/12/12 00:20:59;;;;;;;61.55;33.65;;;4.10;99.90;;;;;;5117883;27;20082;-73
2021/12/12 00:23:25;;;;;;;72.55;37.53;;;4.10;99.90;;;;;;5136387;27;20088;-73
2021/12/12 00:25:54;;;;;;;67.15;37.30;;;4.10;99.90;;;;;;5134745;27;20130;-73
2021/12/12 00:28:22;;;;;;;60.78;35.55;;;4.10;99.90;;;;;;5135965;27;20074;-73
2021/12/12 00:30:54;;;;;;;82.15;39.15;;;4.10;99.90;;;;;;5136229;27;20405;-73
2021/12/12 00:33:21;;;;;;;73.80;38.50;;;4.10;99.90;;;;;;5135091;27;20039;-73
2021/12/12 00:35:49;;;;;;;63.60;35.88;;;4.10;99.90;;;;;;5135745;27;20036;-73
2021/12/12 00:38:20;;;;;;;70.88;37.13;;;4.20;99.90;;;;;;5136006;27;20039;-73
2021/12/12 00:40:49;;;;;;;66.75;35.97;;;4.10;99.90;;;;;;5135902;27;20039;-73
2021/12/12 00:43:24;;;;;;;67.95;37.75;;;4.10;99.90;;;;;;5135885;27;20129;-73
2021/12/12 00:45:53;;;;;;;74.47;38.38;;;4.20;99.90;;;;;;5135551;27;20043;-73
2021/12/12 00:48:19;;;;;;;67.55;37.28;;;4.20;99.90;;;;;;5135590;27;20083;-73
2021/12/12 00:50:46;;;;;;;59.95;35.90;;;4.10;99.90;;;;;;5134740;27;20484;-73
2021/12/12 00:53:13;;;;;;;66.30;37.28;;;4.20;99.90;;;;;;5135474;27;20396;-73
2021/12/12 00:55:42;;;;;;;68.85;38.40;;;4.20;99.90;;;;;;5135184;27;20372;-73
2021/12/12 00:58:10;;;;;;;68.53;35.55;;;4.20;99.90;;;;;;5135680;27;20399;-73
2021/12/12 01:00:43;;;;;;;71.03;39.35;;;4.20;99.90;;;;;;5135872;27;20045;-73
2021/12/12 01:03:10;;;;;;;67.15;35.83;;;4.20;99.90;;;;;;5135389;27;20031;-73
2021/12/12 01:05:38;;;;;;;76.22;38.67;;;4.20;99.90;;;;;;5132932;27;20050;-73
2021/12/12 01:08:06;;;;;;;66.13;38.55;;;4.20;99.90;;;;;;5135621;27;20031;-73
2021/12/12 01:10:37;;;;;;;62.58;37.10;;;4.20;99.90;;;;;;5134149;27;20039;-71
2021/12/12 01:13:04;;;;;;;69.18;37.85;;;4.20;99.90;;;;;;5134097;27;20039;-71
2021/12/12 01:15:35;;;;;;;65.25;37.30;;;4.20;99.90;;;;;;5135194;27;20046;-71
2021/12/12 01:18:06;;;;;;;68.15;38.28;;;4.20;99.90;;;;;;5135054;27;20043;-72
2021/12/12 01:20:40;;;;;;;61.72;36.60;;;4.20;99.90;;;;;;5117716;27;20047;-71
2021/12/12 01:23:29;;;;;;;64.15;36.10;;;4.20;99.90;;;;;;5133880;27;20132;-71
2021/12/12 01:25:56;;;;;;;61.70;35.47;;;4.20;99.90;;;;;;5134953;27;20035;-71
2021/12/12 01:28:26;;;;;;;69.45;36.78;;;4.20;99.90;;;;;;5134816;27;20085;-71
2021/12/12 01:30:54;;;;;;;66.90;37.30;;;4.20;99.90;;;;;;5135358;27;20396;-71
2021/12/12 01:33:34;;;;;;;67.13;36.45;;;4.20;99.90;;;;;;5134968;27;20388;-71
2021/12/12 01:36:06;;;;;;;67.22;37.08;;;4.20;99.90;;;;;;5133241;27;20073;-71
2021/12/12 01:38:53;;;;;;;64.65;36.40;;;4.20;99.90;;;;;;5133378;27;20039;-71
2021/12/12 01:41:48;;;;;;;72.10;37.67;;;4.20;99.90;;;;;;5135176;27;20046;-71
2021/12/12 01:44:20;;;;;;;67.72;36.22;;;4.20;99.90;;;;;;5133345;27;20118;-72
2021/12/12 01:46:53;;;;;;;64.03;35.65;;;4.20;99.90;;;;;;5134453;27;20046;-71
2021/12/12 01:49:25;;;;;;;63.13;34.67;;;4.30;99.90;;;;;;5133368;27;20047;-71
2021/12/12 01:51:51;;;;;;;68.10;36.67;;;4.30;99.90;;;;;;5135127;27;20407;-71
2021/12/12 01:54:33;;;;;;;69.35;35.92;;;4.30;99.90;;;;;;5134686;27;20039;-71
2021/12/12 01:57:00;;;;;;;71.47;36.75;;;4.30;99.90;;;;;;5134590;27;20035;-71
2021/12/12 01:59:34;;;;;;;64.47;34.13;;;4.30;99.90;;;;;;5134449;27;20031;-71
2021/12/12 02:02:03;;;;;;;64.70;36.40;;;4.30;99.90;;;;;;5134689;27;20089;-71
2021/12/12 02:04:34;;;;;;;68.78;35.53;;;4.30;99.90;;;;;;5134344;27;20398;-71
2021/12/12 02:07:01;;;;;;;70.32;36.35;;;4.30;99.90;;;;;;5132684;27;20067;-71
2021/12/12 02:09:27;;;;;;;58.83;33.30;;;4.30;99.90;;;;;;5134039;27;20035;-72
2021/12/12 02:11:56;;;;;;;57.60;33.47;;;4.30;99.90;;;;;;5133965;27;20075;-72
2021/12/12 02:14:23;;;;;;;65.53;35.80;;;4.30;99.90;;;;;;5133165;27;20094;-72
2021/12/12 02:16:52;;;;;;;77.80;37.90;;;4.40;99.90;;;;;;5132439;27;20043;-72
2021/12/12 02:19:29;;;;;;;79.32;39.42;;;4.40;99.90;;;;;;5133096;27;20050;-72
2021/12/12 02:35:24;;;;;;;60.20;33.03;;;4.40;99.90;;;;;;5133329;28;20376;-72
2021/12/12 02:37:53;;;;;;;58.67;31.77;;;4.40;99.90;;;;;;5132459;28;20120;-72
2021/12/12 02:40:30;;;;;;;55.60;32.45;;;4.40;99.90;;;;;;5133939;27;20061;-72
2021/12/12 02:42:57;;;;;;;56.83;32.08;;;4.50;99.90;;;;;;5134002;27;20074;-71
2021/12/12 02:45:24;;;;;;;63.67;33.33;;;4.50;99.90;;;;;;5132849;28;20043;-72
2021/12/12 02:47:59;;;;;;;58.67;30.75;;;4.50;99.90;;;;;;5133727;27;20054;-72
2021/12/12 02:50:29;;;;;;;52.10;31.52;;;4.50;99.90;;;;;;5133982;27;20392;-71
2021/12/12 02:53:00;;;;;;;48.75;29.20;;;4.50;99.90;;;;;;5133934;27;20039;-72
2021/12/12 02:55:34;;;;;;;56.63;30.73;;;4.50;99.90;;;;;;5133986;27;20082;-72
2021/12/12 02:58:01;;;;;;;61.65;32.55;;;4.50;99.90;;;;;;5133776;27;20632;-72
2021/12/12 03:00:34;;;;;;;56.17;31.48;;;4.50;99.90;;;;;;5134455;27;20035;-72
2021/12/12 03:03:00;;;;;;;55.33;28.77;;;4.60;99.90;;;;;;5133970;27;20072;-72
2021/12/12 03:05:33;;;;;;;56.38;29.52;;;4.60;99.90;;;;;;5134124;27;20027;-72
2021/12/12 03:07:59;;;;;;;52.67;28.27;;;4.60;99.90;;;;;;5133924;27;20047;-71
2021/12/12 03:10:29;;;;;;;47.10;27.83;;;4.60;99.90;;;;;;5133802;27;20092;-71
2021/12/12 03:12:55;;;;;;;58.42;30.80;;;4.70;99.90;;;;;;5133165;28;20047;-72
2021/12/12 03:15:26;;;;;;;55.83;30.10;;;4.70;99.90;;;;;;5133820;27;20046;-72
2021/12/12 03:17:59;;;;;;;50.85;29.73;;;4.70;99.90;;;;;;5133804;27;20385;-72
2021/12/12 03:20:33;;;;;;;48.03;27.33;;;4.70;99.90;;;;;;5134039;27;20086;-72
2021/12/12 03:23:07;;;;;;;53.13;27.42;;;4.70;99.90;;;;;;5133967;27;20039;-71
2021/12/12 03:25:35;;;;;;;48.72;27.88;;;4.70;99.90;;;;;;5133215;27;20058;-72
2021/12/12 03:28:01;;;;;;;47.75;28.00;;;4.70;99.90;;;;;;5133695;27;20381;-71
2021/12/12 03:30:29;;;;;;;54.53;27.63;;;4.80;99.90;;;;;;5135875;27;20397;-71
2021/12/12 03:32:54;;;;;;;43.63;25.50;;;4.80;99.90;;;;;;5137203;27;20039;-72
2021/12/12 03:35:20;;;;;;;43.75;24.42;;;4.70;99.90;;;;;;5136181;27;20139;-72
2021/12/12 03:37:47;;;;;;;46.40;27.05;;;4.80;99.90;;;;;;5136736;27;20039;-71
2021/12/12 03:40:22;;;;;;;44.38;25.88;;;4.80;99.90;;;;;;5135929;27;20031;-72
2021/12/12 03:42:51;;;;;;;49.25;27.50;;;4.80;99.90;;;;;;5137434;27;20039;-71
2021/12/12 03:45:18;;;;;;;44.65;25.20;;;4.90;99.90;;;;;;5135812;27;20043;-72
2021/12/12 03:47:50;;;;;;;39.50;24.33;;;4.90;99.90;;;;;;5136561;27;20046;-71
2021/12/12 03:50:24;;;;;;;48.05;26.75;;;4.90;99.90;;;;;;5137123;27;20403;-71
2021/12/12 03:52:50;;;;;;;51.50;27.33;;;4.90;99.90;;;;;;5136921;27;20425;-71
2021/12/12 03:55:17;;;;;;;42.28;26.15;;;4.90;99.90;;;;;;5135693;27;20063;-72
2021/12/12 03:57:44;;;;;;;40.35;24.85;;;4.90;99.90;;;;;;5135261;27;20408;-71
2021/12/12 04:00:15;;;;;;;47.65;26.38;;;4.90;99.90;;;;;;5136661;27;20408;-71
2021/12/12 04:02:41;;;;;;;43.92;24.33;;;4.90;99.90;;;;;;5136734;27;20408;-72
2021/12/12 04:05:07;;;;;;;43.60;22.55;;;4.90;99.90;;;;;;5136505;27;20493;-71
2021/12/12 04:07:33;;;;;;;37.05;23.08;;;4.90;99.90;;;;;;5117664;27;20085;-72
2021/12/12 04:09:59;;;;;;;43.92;23.13;;;4.90;99.90;;;;;;5136494;27;20053;-72
2021/12/12 04:12:26;;;;;;;43.75;22.58;;;4.90;99.90;;;;;;5135143;27;20047;-72
2021/12/12 04:14:55;;;;;;;34.45;20.40;;;5.00;99.90;;;;;;5136707;27;20031;-71
2021/12/12 04:17:25;;;;;;;41.03;21.50;;;5.00;99.90;;;;;;5134535;27;20053;-72
2021/12/12 04:19:55;;;;;;;42.17;23.15;;;5.00;99.90;;;;;;5136773;27;20152;-72
2021/12/12 04:22:21;;;;;;;39.20;23.38;;;5.00;99.90;;;;;;5136357;27;20039;-72
2021/12/12 04:24:51;;;;;;;34.60;20.08;;;5.00;99.90;;;;;;5136399;27;20463;-72
2021/12/12 04:27:17;;;;;;;34.97;22.02;;;5.00;99.90;;;;;;5135688;27;20046;-72
2021/12/12 04:29:48;;;;;;;37.88;21.27;;;5.00;99.90;;;;;;5136491;27;20039;-72
2021/12/12 04:32:20;;;;;;;40.65;21.25;;;5.00;99.90;;;;;;5136306;27;20047;-71
2021/12/12 04:34:53;;;;;;;34.35;19.58;;;5.10;99.90;;;;;;5136174;27;20046;-72
2021/12/12 04:37:20;;;;;;;33.30;17.50;;;5.10;99.90;;;;;;5135805;27;20082;-71
2021/12/12 04:39:50;;;;;;;34.67;19.88;;;5.10;99.90;;;;;;5136142;27;20039;-71
2021/12/12 04:42:20;;;;;;;38.08;19.45;;;5.20;99.90;;;;;;5135861;27;20039;-71
2021/12/12 04:44:51;;;;;;;32.42;19.63;;;5.20;99.90;;;;;;5136330;27;20068;-72
2021/12/12 04:50:34;;;;;;;31.20;19.67;;;5.20;99.90;;;;;;5134551;27;20051;-72
2021/12/12 04:53:02;;;;;;;26.70;17.95;;;5.20;99.90;;;;;;5135933;27;20482;-72
2021/12/12 04:55:58;;;;;;;29.33;16.77;;;5.20;99.90;;;;;;5135846;27;20042;-72
2021/12/12 04:58:43;;;;;;;24.42;16.20;;;5.20;99.90;;;;;;5135597;27;20378;-71
2021/12/12 05:01:22;;;;;;;33.28;17.73;;;5.30;99.90;;;;;;5135451;27;20038;-72
2021/12/12 05:03:56;;;;;;;30.08;17.20;;;5.20;99.90;;;;;;5135601;27;20499;-72
2021/12/12 05:06:39;;;;;;;;;;;5.30;99.90;;;;;;5135521;27;20061;-72
2021/12/12 05:09:17;;;;;;;27.52;15.98;;;5.30;99.90;;;;;;5135862;27;19915;-72
2021/12/12 05:11:55;;;;;;;27.80;17.10;;;5.30;99.90;;;;;;5134185;27;20122;-71
2021/12/12 05:14:24;;;;;;;28.30;16.70;;;5.30;99.90;;;;;;5134221;27;20070;-72
2021/12/12 05:17:19;;;;;;;23.58;14.95;;;5.30;99.90;;;;;;5134757;27;20488;-72
2021/12/12 05:19:55;;;;;;;28.67;16.50;;;5.30;99.90;;;;;;5135211;27;20038;-72
2021/12/12 05:22:30;;;;;;;24.15;16.33;;;5.20;99.90;;;;;;5135360;27;20039;-72
2021/12/12 05:25:01;;;;;;;22.75;15.00;;;5.30;99.90;;;;;;5135357;27;20083;-72
2021/12/12 05:27:29;;;;;;;19.10;14.18;;;5.30;99.90;;;;;;5135096;27;20039;-72
2021/12/12 05:30:07;;;;;;;19.63;13.65;;;5.30;99.90;;;;;;5115476;27;20023;-72
2021/12/12 05:32:34;;;;;;;22.73;14.48;;;5.30;99.90;;;;;;5114577;28;20051;-72
2021/12/12 05:35:01;;;;;;;22.90;13.73;;;5.30;99.90;;;;;;5113227;28;20039;-72
2021/12/12 05:37:28;;;;;;;20.60;13.70;;;5.30;99.90;;;;;;5113992;28;20165;-71
2021/12/12 05:40:00;;;;;;;23.23;14.40;;;5.30;99.90;;;;;;5114166;27;20036;-72
2021/12/12 05:42:27;;;;;;;23.23;13.88;;;5.30;99.90;;;;;;5114835;28;20115;-72
2021/12/12 05:44:53;;;;;;;20.42;13.90;;;5.40;99.90;;;;;;5114027;28;20574;-72
2021/12/12 05:47:19;;;;;;;21.35;14.35;;;5.40;99.90;;;;;;5112534;28;20047;-72
2021/12/12 05:49:45;;;;;;;21.08;14.23;;;5.40;99.90;;;;;;5114240;28;20503;-72
2021/12/12 05:52:20;;;;;;;19.95;13.15;;;5.40;99.90;;;;;;5112548;28;20047;-71
2021/12/12 05:54:48;;;;;;;23.67;15.63;;;5.40;99.90;;;;;;5112875;28;20043;-72
2021/12/12 05:57:19;;;;;;;21.25;14.90;;;5.40;99.90;;;;;;5113453;28;20434;-72
2021/12/12 05:59:46;;;;;;;20.70;14.57;;;5.40;99.90;;;;;;5113952;28;20032;-72
2021/12/12 06:02:12;;;;;;;18.95;13.88;;;5.40;99.90;;;;;;5113853;28;20027;-72
2021/12/12 06:04:39;;;;;;;23.77;16.15;;;5.50;99.90;;;;;;5112458;28;20050;-72
2021/12/12 06:07:08;;;;;;;23.65;14.68;;;5.50;99.90;;;;;;5112405;28;20073;-72
2021/12/12 06:09:34;;;;;;;22.08;14.95;;;5.50;99.90;;;;;;5114149;28;20039;-72
2021/12/12 06:12:04;;;;;;;22.80;14.82;;;5.50;99.90;;;;;;5112414;28;20089;-72
2021/12/12 06:14:31;;;;;;;21.95;14.27;;;5.50;99.90;;;;;;5113929;28;20405;-72
2021/12/12 06:16:58;;;;;;;20.45;14.55;;;5.50;99.90;;;;;;5113152;28;20505;-72
2021/12/12 06:19:24;;;;;;;20.73;14.25;;;5.50;99.90;;;;;;5113687;28;20035;-72
2021/12/12 06:21:52;;;;;;;25.35;14.95;;;5.50;99.90;;;;;;5112900;28;20115;-72
2021/12/12 06:24:20;;;;;;;23.05;14.88;;;5.50;99.90;;;;;;5112962;28;20115;-72
2021/12/12 06:26:46;;;;;;;20.48;13.80;;;5.50;99.90;;;;;;5113373;28;20077;-72
2021/12/12 06:29:12;;;;;;;24.77;13.55;;;5.50;99.90;;;;;;5112593;28;20043;-72
2021/12/12 06:31:42;;;;;;;20.75;14.02;;;5.50;99.90;;;;;;5113489;28;20043;-72
2021/12/12 06:34:09;;;;;;;19.02;13.23;;;5.50;99.90;;;;;;5113504;28;20067;-72
2021/12/12 06:36:35;;;;;;;20.05;12.23;;;5.60;99.90;;;;;;5113141;28;20040;-72
2021/12/12 06:39:04;;;;;;;19.70;13.43;;;5.60;99.90;;;;;;5113442;28;20074;-72
2021/12/12 06:41:30;;;;;;;15.88;11.88;;;5.60;99.90;;;;;;5112253;28;20035;-72
2021/12/12 06:43:57;;;;;;;20.67;13.25;;;5.60;99.90;;;;;;5113487;28;20417;-72
2021/12/12 06:46:25;;;;;;;17.95;13.18;;;5.60;99.90;;;;;;5113151;28;20036;-72
2021/12/12 06:48:51;;;;;;;16.45;12.23;;;5.60;99.90;;;;;;5113291;28;20115;-72
2021/12/12 06:51:17;;;;;;;22.38;12.60;;;5.70;99.90;;;;;;5113570;28;20040;-72
2021/12/12 06:53:45;;;;;;;15.63;11.82;;;5.70;99.90;;;;;;5113330;28;20035;-72
2021/12/12 06:56:16;;;;;;;18.58;12.63;;;5.70;99.90;;;;;;5111929;28;20040;-72
2021/12/12 06:58:43;;;;;;;16.40;11.98;;;5.60;99.90;;;;;;5113256;28;20039;-72
2021/12/12 07:01:15;;;;;;;16.30;11.98;;;5.70;99.90;;;;;;5112328;28;20459;-72
2021/12/12 07:03:42;;;;;;;19.83;12.93;;;5.70;99.90;;;;;;5114108;28;20104;-72
2021/12/12 07:06:08;;;;;;;17.52;12.32;;;5.70;99.90;;;;;;5116779;28;20035;-72
2021/12/12 07:08:34;;;;;;;19.65;11.70;;;5.70;99.90;;;;;;5117367;28;20039;-72
2021/12/12 07:11:00;;;;;;;17.55;12.15;;;5.70;99.90;;;;;;5117255;28;20033;-72
2021/12/12 07:13:26;;;;;;;18.70;12.85;;;5.70;99.90;;;;;;5115913;28;20092;-72
2021/12/12 07:15:55;;;;;;;16.67;11.75;;;5.70;99.90;;;;;;5116791;28;20071;-72
2021/12/12 07:18:28;;;;;;;17.63;13.07;;;5.70;99.90;;;;;;5098657;28;20118;-72
2021/12/12 07:20:57;;;;;;;16.70;12.25;;;5.80;99.90;;;;;;5117129;28;20127;-71
2021/12/12 07:23:23;;;;;;;17.52;12.38;;;5.80;99.90;;;;;;5116953;28;20039;-72
2021/12/12 07:25:49;;;;;;;18.73;12.43;;;5.80;99.90;;;;;;5115132;28;20126;-72
2021/12/12 07:28:16;;;;;;;17.58;11.73;;;5.80;99.90;;;;;;5115747;28;20035;-72
2021/12/12 07:30:42;;;;;;;19.05;13.13;;;5.80;99.90;;;;;;5116731;28;20039;-72
2021/12/12 07:33:09;;;;;;;17.25;11.70;;;5.80;99.90;;;;;;5116894;28;20040;-72
2021/12/12 07:35:38;;;;;;;18.23;12.48;;;5.90;99.90;;;;;;5115107;28;20036;-72
2021/12/12 07:38:09;;;;;;;18.55;12.38;;;5.90;99.90;;;;;;5116606;27;20039;-72
2021/12/12 07:40:35;;;;;;;18.02;11.98;;;5.90;99.90;;;;;;5132291;27;20041;-72
2021/12/12 07:43:01;;;;;;;18.90;12.73;;;5.90;99.90;;;;;;5115467;28;20067;-72
2021/12/12 07:45:27;;;;;;;17.15;12.30;;;5.90;99.90;;;;;;5116522;28;20047;-72
2021/12/12 07:47:54;;;;;;;18.25;12.02;;;5.90;99.90;;;;;;5115948;28;20044;-72
2021/12/12 07:50:22;;;;;;;19.70;13.63;;;5.90;99.90;;;;;;5115435;28;20492;-72
2021/12/12 07:52:49;;;;;;;20.42;12.68;;;5.90;99.90;;;;;;5116622;28;20039;-72
2021/12/12 07:55:15;;;;;;;20.88;12.25;;;6.00;99.90;;;;;;5116463;28;20046;-72
2021/12/12 07:57:42;;;;;;;17.73;12.50;;;5.90;99.90;;;;;;5115862;27;20409;-72
2021/12/12 08:00:14;;;;;;;17.50;12.35;;;6.00;99.90;;;;;;5115112;28;20065;-72
2021/12/12 08:02:41;;;;;;;16.63;11.75;;;6.00;99.90;;;;;;5114969;28;20042;-72
2021/12/12 08:05:09;;;;;;;25.02;14.00;;;6.00;99.90;;;;;;5116111;28;20035;-71
2021/12/12 08:07:38;;;;;;;20.25;13.60;;;6.00;99.90;;;;;;5122267;27;20074;-72
2021/12/12 08:10:07;;;;;;;25.27;14.52;;;6.00;99.90;;;;;;5123970;27;20043;-72
2021/12/12 08:12:33;;;;;;;20.42;13.65;;;6.10;99.90;;;;;;5124936;27;20076;-72
2021/12/12 08:15:03;;;;;;;24.13;13.73;;;6.10;99.90;;;;;;5126289;27;20070;-73
2021/12/12 08:17:29;;;;;;;19.38;13.27;;;6.10;99.90;;;;;;5130142;27;20043;-72
2021/12/12 08:20:00;;;;;;;20.80;13.77;;;6.10;99.90;;;;;;5136318;27;20046;-72
2021/12/12 08:22:27;;;;;;;20.67;13.23;;;6.20;99.90;;;;;;5136286;27;20404;-72
2021/12/12 08:24:57;;;;;;;19.55;12.55;;;6.20;99.90;;;;;;5136980;27;20035;-72
2021/12/12 08:27:23;;;;;;;20.85;13.68;;;6.20;99.90;;;;;;5135599;27;20046;-71
2021/12/12 08:29:50;;;;;;;24.80;14.63;;;6.20;99.90;;;;;;5134824;27;20043;-71
2021/12/12 08:32:17;;;;;;;23.15;15.10;;;6.20;99.90;;;;;;5136261;27;20070;-72
2021/12/12 08:34:42;;;;;;;20.15;13.50;;;6.20;99.90;;;;;;5136478;27;20039;-72
2021/12/12 08:37:09;;;;;;;19.85;12.75;;;6.20;99.90;;;;;;5135882;27;20542;-72
2021/12/12 08:39:35;;;;;;;23.67;15.18;;;6.30;99.90;;;;;;5135016;27;20043;-72
2021/12/12 08:42:05;;;;;;;22.48;14.23;;;6.20;99.90;;;;;;5135747;27;20028;-72
2021/12/12 08:44:34;;;;;;;23.05;14.50;;;6.30;99.90;;;;;;5135931;27;20035;-72
2021/12/12 08:47:02;;;;;;;22.15;14.45;;;6.30;99.90;;;;;;5116968;27;20059;-72
2021/12/12 08:49:31;;;;;;;24.35;15.15;;;6.40;99.90;;;;;;5134357;27;20125;-72
2021/12/12 08:52:11;;;;;;;29.25;17.45;;;6.40;99.90;;;;;;5134618;27;20039;-72
2021/12/12 08:54:39;;;;;;;29.55;17.05;;;6.40;99.90;;;;;;5136234;27;20496;-72
2021/12/12 08:57:31;;;;;;;29.50;16.17;;;6.50;99.90;;;;;;5135245;27;20047;-72
2021/12/12 08:59:57;;;;;;;26.65;16.10;;;6.50;99.90;;;;;;5119525;27;20101;-72
2021/12/12 09:02:24;;;;;;;27.83;17.83;;;6.40;99.90;;;;;;5133852;27;20035;-71
2021/12/12 09:04:57;;;;;;;31.13;17.45;;;6.50;99.90;;;;;;5135159;27;20043;-71
2021/12/12 09:07:29;;;;;;;;;;;6.50;99.90;;;;;;5133756;27;20043;-71
2021/12/12 09:10:02;;;;;;;25.80;14.65;;;6.50;99.90;;;;;;5135201;27;19915;-71
2021/12/12 09:12:36;;;;;;;31.73;17.23;;;6.50;99.90;;;;;;5135125;27;20031;-71
2021/12/12 09:15:24;;;;;;;29.88;17.23;;;6.50;99.90;;;;;;5135256;27;20074;-71
2021/12/12 09:18:02;;;;;;;37.22;19.67;;;6.60;99.90;;;;;;5133044;27;20039;-71
2021/12/12 09:20:35;;;;;;;34.95;18.90;;;6.60;99.90;;;;;;5133742;27;20043;-71
2021/12/12 09:23:13;;;;;;;40.03;20.63;;;6.60;99.90;;;;;;5134910;27;20114;-71
2021/12/12 09:25:51;;;;;;;35.33;18.85;;;6.70;99.90;;;;;;5134608;27;20035;-72
2021/12/12 09:28:25;;;;;;;43.25;22.48;;;6.70;99.90;;;;;;5133675;27;20436;-71
2021/12/12 09:30:51;;;;;;;39.95;20.95;;;6.70;99.90;;;;;;5134830;27;20108;-71
2021/12/12 09:33:24;;;;;;;43.72;22.05;;;6.70;99.90;;;;;;5133374;27;20473;-73
2021/12/12 09:35:57;;;;;;;40.17;21.13;;;6.70;99.90;;;;;;5133282;27;20122;-73
2021/12/12 09:38:49;;;;;;;39.92;20.58;;;6.80;99.90;;;;;;5134775;27;20284;-72
2021/12/12 09:41:27;;;;;;;49.40;22.92;;;6.80;99.90;;;;;;5124021;27;20393;-72
2021/12/12 09:44:01;;;;;;;44.97;22.30;;;6.80;99.90;;;;;;5134633;27;20046;-72
2021/12/12 09:46:58;;;;;;;62.97;25.58;;;6.80;99.90;;;;;;5134103;27;20098;-71
2021/12/12 09:53:09;;;;;;;52.13;23.65;;;6.90;99.90;;;;;;5133304;27;20042;-72
2021/12/12 09:55:44;;;;;;;62.45;28.27;;;6.90;99.90;;;;;;5133225;27;20039;-72
2021/12/12 09:58:20;;;;;;;51.33;24.88;;;6.90;99.90;;;;;;5134082;27;20043;-71
2021/12/12 10:00:57;;;;;;;64.03;26.55;;;6.90;99.90;;;;;;5133526;27;20047;-72
2021/12/12 10:03:46;;;;;;;63.60;27.85;;;7.00;99.90;;;;;;5133240;27;20060;-71
2021/12/12 10:06:38;;;;;;;59.35;26.63;;;7.00;99.90;;;;;;5133972;27;20039;-71
2021/12/12 10:09:17;;;;;;;66.85;28.35;;;7.10;99.90;;;;;;5133168;27;20054;-71
2021/12/12 10:11:57;;;;;;;72.53;28.88;;;7.10;99.90;;;;;;5134141;27;20395;-72
2021/12/12 10:14:47;;;;;;;86.47;32.67;;;7.10;99.90;;;;;;5132955;27;20046;-71
2021/12/12 10:17:37;;;;;;;76.65;31.83;;;7.20;99.90;;;;;;5133443;27;20046;-71
2021/12/12 10:20:22;;;;;;;84.53;32.67;;;7.20;99.90;;;;;;5133665;27;20067;-71
2021/12/12 10:23:09;;;;;;;101.78;34.67;;;7.30;99.90;;;;;;5133927;27;20092;-71
2021/12/12 10:25:50;;;;;;;87.95;34.80;;;7.30;99.90;;;;;;5133704;27;20045;-71
2021/12/12 10:28:32;;;;;;;95.45;37.75;;;7.40;99.90;;;;;;5134065;27;20078;-71
2021/12/12 10:31:05;;;;;;;105.68;36.65;;;7.40;99.90;;;;;;5122871;28;20037;-71
2021/12/12 10:33:30;;;;;;;94.75;35.63;;;7.50;99.90;;;;;;5118136;27;20528;-71
2021/12/12 10:36:10;;;;;;;94.78;35.83;;;7.50;99.90;;;;;;5116109;27;20039;-71
2021/12/12 10:39:11;;;;;;;88.63;34.45;;;7.50;99.90;;;;;;5114138;27;20058;-71
2021/12/12 10:41:46;;;;;;;91.07;33.45;;;7.50;99.90;;;;;;5121010;27;20046;-71
2021/12/12 10:44:22;;;;;;;86.55;34.17;;;7.60;99.90;;;;;;5138877;27;20118;-71
2021/12/12 10:47:15;;;;;;;87.03;33.42;;;7.60;99.90;;;;;;5135150;27;20127;-71
2021/12/12 10:50:00;;;;;;;89.50;33.90;;;7.70;99.90;;;;;;5124477;27;20409;-71
2021/12/12 10:52:46;;;;;;;102.07;36.30;;;7.70;99.90;;;;;;5128260;27;20036;-71
2021/12/12 10:55:17;;;;;;;99.93;36.08;;;7.70;99.90;;;;;;5123530;27;20408;-72
2021/12/12 10:57:50;;;;;;;119.07;38.33;;;7.80;99.90;;;;;;5127851;27;20433;-71
2021/12/12 11:00:25;;;;;;;99.05;35.03;;;7.80;99.90;;;;;;5127713;27;20408;-71
2021/12/12 11:03:01;;;;;;;79.28;32.20;;;7.80;99.90;;;;;;5123991;27;20081;-71
2021/12/12 11:05:33;;;;;;;94.15;35.75;;;7.80;99.90;;;;;;5127790;27;20043;-71
2021/12/12 11:08:21;;;;;;;87.15;34.20;;;7.90;99.90;;;;;;5124949;27;20047;-71
2021/12/12 11:10:49;;;;;;;98.35;36.15;;;7.90;99.90;;;;;;5122983;27;21441;-70
2021/12/12 11:13:20;;;;;;;96.10;36.40;;;7.90;99.90;;;;;;5128017;27;20047;-71
2021/12/12 11:16:05;;;;;;;87.25;33.58;;;8.00;99.90;;;;;;5127199;27;20142;-71
2021/12/12 11:18:39;;;;;;;103.05;37.58;;;8.00;99.90;;;;;;5126808;27;20042;-71
2021/12/12 11:21:30;;;;;;;87.60;33.30;;;8.00;99.90;;;;;;5124133;27;20035;-70
2021/12/12 11:24:11;;;;;;;94.18;32.90;;;8.00;99.90;;;;;;5123971;27;20043;-71
2021/12/12 11:26:46;;;;;;;95.47;34.63;;;8.00;99.90;;;;;;5126155;27;20257;-71
2021/12/12 11:29:18;;;;;;;79.47;32.80;;;8.00;99.90;;;;;;5123153;27;20081;-71
2021/12/12 11:31:55;;;;;;;89.75;33.83;;;8.00;99.90;;;;;;5123673;27;20480;-71
2021/12/12 11:34:23;;;;;;;93.82;33.90;;;8.00;99.90;;;;;;5123793;27;20484;-71
2021/12/12 11:37:27;;;;;;;111.20;42.58;;;8.00;99.90;;;;;;5124813;27;20039;-71
2021/12/12 11:40:20;;;;;;;103.20;38.17;;;8.00;99.90;;;;;;5124684;27;20030;-71
2021/12/12 11:43:03;;;;;;;91.88;34.75;;;8.10;99.90;;;;;;5126265;27;20043;-71
2021/12/12 11:45:45;;;;;;;105.35;39.67;;;8.10;99.90;;;;;;5125182;27;20489;-71
2021/12/12 11:49:15;;;;;;;80.35;30.58;;;8.20;99.90;;;;;;5126224;27;20396;-71
2021/12/12 11:51:45;;;;;;;76.93;30.77;;;8.20;99.90;;;;;;5048545;28;20048;-71
2021/12/12 11:54:10;;;;;;;70.97;30.70;;;8.20;99.90;;;;;;5055280;28;20047;-71
2021/12/12 11:56:55;;;;;;;78.88;31.52;;;8.20;99.90;;;;;;5100272;27;20048;-71
2021/12/12 11:59:51;;;;;;;78.90;31.30;;;8.30;99.90;;;;;;5125085;27;20063;-71
2021/12/12 12:02:29;;;;;;;71.30;29.00;;;8.40;99.90;;;;;;5116201;27;20036;-70
2021/12/12 12:04:57;;;;;;;83.68;29.80;;;8.40;99.90;;;;;;5113639;28;20048;-71
2021/12/12 12:07:45;;;;;;;86.32;32.30;;;8.40;99.90;;;;;;5114401;28;20048;-71
2021/12/12 12:10:34;;;;;;;73.50;29.13;;;8.40;99.90;;;;;;5116263;27;20050;-71
2021/12/12 12:13:35;;;;;;;66.82;27.45;;;8.40;99.90;;;;;;5114758;28;20055;-71
2021/12/12 12:16:38;;;;;;;65.75;26.92;;;8.40;99.90;;;;;;5115799;28;20035;-71
2021/12/12 12:19:09;;;;;;;67.65;25.65;;;8.50;99.90;;;;;;5115866;28;20043;-71
2021/12/12 12:21:55;;;;;;;72.20;29.02;;;8.50;99.90;;;;;;5115899;28;20035;-71
2021/12/12 12:24:25;;;;;;;71.40;27.95;;;8.50;99.90;;;;;;5115880;28;20107;-71
2021/12/12 12:27:09;;;;;;;64.65;26.08;;;8.50;99.90;;;;;;5114975;28;20039;-71
2021/12/12 12:29:44;;;;;;;61.80;26.33;;;8.50;99.90;;;;;;5116177;27;20088;-71
2021/12/12 12:32:34;;;;;;;55.75;24.88;;;8.50;99.90;;;;;;5115512;28;20444;-71
2021/12/12 12:35:41;;;;;;;74.82;27.25;;;8.60;99.90;;;;;;5115017;28;20048;-71
2021/12/12 12:38:32;;;;;;;56.03;23.55;;;8.60;99.90;;;;;;5121245;27;20040;-72
2021/12/12 12:41:55;;;;;;;54.90;24.25;;;8.60;99.90;;;;;;5125876;27;20035;-71
2021/12/12 12:44:58;;;;;;;65.57;25.75;;;8.60;99.90;;;;;;5134278;27;20369;-71
2021/12/12 12:48:01;;;;;;;60.65;23.98;;;8.60;99.90;;;;;;5135660;27;20043;-71
2021/12/12 12:51:03;;;;;;;61.20;25.10;;;8.60;99.90;;;;;;5135782;27;20080;-71
2021/12/12 12:53:59;;;;;;;48.90;21.50;;;8.60;99.90;;;;;;5134382;27;20039;-71
2021/12/12 12:57:03;;;;;;;58.50;23.65;;;8.60;99.90;;;;;;5134179;27;20126;-72
2021/12/12 12:59:55;;;;;;;71.25;25.92;;;8.70;99.90;;;;;;5135975;27;20050;-71
2021/12/12 13:02:49;;;;;;;50.45;21.52;;;8.70;99.90;;;;;;5128853;27;20469;-71
2021/12/12 13:05:39;;;;;;;52.22;22.58;;;8.70;99.90;;;;;;5123842;27;20031;-72
2021/12/12 13:08:49;;;;;;;43.67;20.30;;;8.70;99.90;;;;;;5120334;27;20079;-71
2021/12/12 13:11:22;;;;;;;47.78;21.60;;;8.70;99.90;;;;;;5050671;28;20409;-71
2021/12/12 13:13:59;;;;;;;52.58;22.63;;;8.70;99.90;;;;;;5113850;28;20039;-71
2021/12/12 13:16:46;;;;;;;49.53;21.10;;;8.70;99.90;;;;;;5114421;28;20485;-71
2021/12/12 13:19:26;;;;;;;46.92;21.35;;;8.70;99.90;;;;;;5113780;28;20048;-71
2021/12/12 13:22:12;;;;;;;45.38;21.10;;;8.70;99.90;;;;;;5113516;28;20047;-71
2021/12/12 13:25:05;;;;;;;38.70;20.52;;;8.80;99.90;;;;;;5114775;28;20156;-71
2021/12/12 13:28:00;;;;;;;48.67;22.27;;;8.80;99.90;;;;;;5114058;28;20047;-71
2021/12/12 13:30:58;;;;;;;40.92;20.92;;;8.80;99.90;;;;;;5114224;28;20039;-71
2021/12/12 13:33:32;;;;;;;41.70;20.90;;;8.80;99.90;;;;;;5106546;28;20119;-71